Time;durP1;ratioP1;P1;durP2;ratioP2;P2;SDS_P1;SDS_P2;PMS_P1;PMS_P2;Temp;Humidity;BMP_temperature;BMP_pressure;BME280_temperature;BME280_humidity;BME280_pressure;Samples;Min_cycle;Max_cycle;Signal;HPM_P1;HPM_P2
2023/01/29 00:01:09;;;;;;;25.20;15.48;;;5.10;95.50;;;;;;5034444;28;20032;-69
2023/01/29 00:03:35;;;;;;;25.77;14.93;;;5.20;95.70;;;;;;5034147;28;20054;-68
2023/01/29 00:06:06;;;;;;;25.75;15.23;;;5.20;95.60;;;;;;5034440;28;20086;-69
2023/01/29 00:08:38;;;;;;;23.85;15.13;;;5.20;95.60;;;;;;5034564;28;20037;-68
2023/01/29 00:11:06;;;;;;;21.70;15.07;;;5.20;95.70;;;;;;5034339;28;20057;-69
2023/01/29 00:13:33;;;;;;;24.70;16.40;;;5.20;95.70;;;;;;5032946;28;20079;-68
2023/01/29 00:16:00;;;;;;;23.98;15.55;;;5.20;95.70;;;;;;5034285;28;20026;-69
2023/01/29 00:18:27;;;;;;;21.33;14.93;;;5.20;95.80;;;;;;5034153;28;20021;-68
2023/01/29 00:20:53;;;;;;;25.33;15.45;;;5.20;95.80;;;;;;5034390;28;20029;-69
2023/01/29 00:23:18;;;;;;;23.20;15.27;;;5.20;95.80;;;;;;5034452;28;20087;-68
2023/01/29 00:25:45;;;;;;;23.98;14.93;;;5.20;95.60;;;;;;5033846;28;20054;-68
2023/01/29 00:28:11;;;;;;;24.10;14.93;;;5.20;95.60;;;;;;5034300;28;20475;-68
2023/01/29 00:30:37;;;;;;;20.55;14.35;;;5.20;95.60;;;;;;5033353;28;20349;-68
2023/01/29 00:33:03;;;;;;;24.42;15.50;;;5.20;95.60;;;;;;5032623;28;20120;-68
2023/01/29 00:35:30;;;;;;;22.25;15.13;;;5.10;95.60;;;;;;5034196;28;20039;-68
2023/01/29 00:37:55;;;;;;;24.10;15.63;;;5.10;95.90;;;;;;5034342;28;20029;-68
2023/01/29 00:40:24;;;;;;;22.45;14.73;;;5.00;96.00;;;;;;5034431;28;20037;-69
2023/01/29 00:45:38;;;;;;;24.13;15.77;;;5.10;96.10;;;;;;5034108;28;20536;-68
2023/01/29 00:48:04;;;;;;;25.45;15.98;;;5.00;96.10;;;;;;5033802;28;20025;-68
2023/01/29 00:50:30;;;;;;;23.55;16.15;;;5.00;96.10;;;;;;5033322;28;20042;-68
2023/01/29 00:52:56;;;;;;;25.42;15.10;;;5.10;96.20;;;;;;5033470;28;20083;-68
2023/01/29 00:55:22;;;;;;;23.80;15.70;;;5.00;96.30;;;;;;5034251;28;20025;-68
2023/01/29 00:57:48;;;;;;;24.95;15.93;;;5.10;96.30;;;;;;5033372;28;20038;-68
2023/01/29 01:00:16;;;;;;;25.02;16.25;;;5.00;96.10;;;;;;5033735;28;20430;-68
2023/01/29 01:05:28;;;;;;;23.65;16.33;;;5.10;96.10;;;;;;5033797;28;20552;-68
2023/01/29 01:07:56;;;;;;;27.25;16.83;;;5.00;96.10;;;;;;5033475;28;20065;-69
2023/01/29 01:10:28;;;;;;;27.90;16.33;;;5.00;96.10;;;;;;5033039;28;20045;-69
2023/01/29 01:13:00;;;;;;;23.55;15.07;;;5.00;96.10;;;;;;5032608;28;20079;-68
2023/01/29 01:15:32;;;;;;;25.52;16.08;;;4.90;96.10;;;;;;5033867;28;20025;-68
2023/01/29 01:18:00;;;;;;;23.38;15.73;;;4.90;96.20;;;;;;5033493;28;20084;-69
2023/01/29 01:20:28;;;;;;;24.70;16.65;;;4.90;96.30;;;;;;5033154;28;20363;-68
2023/01/29 01:22:53;;;;;;;23.17;16.00;;;4.90;96.40;;;;;;5033439;28;20065;-68
2023/01/29 01:25:20;;;;;;;27.55;17.30;;;4.90;96.40;;;;;;5033489;28;20455;-68
2023/01/29 01:27:46;;;;;;;25.55;16.88;;;4.80;96.50;;;;;;5033460;28;20352;-68
2023/01/29 01:30:14;;;;;;;25.65;16.55;;;4.80;96.50;;;;;;5032063;28;20091;-68
2023/01/29 01:32:41;;;;;;;26.90;16.60;;;4.70;96.70;;;;;;5033255;28;20053;-68
2023/01/29 01:35:08;;;;;;;28.00;16.55;;;4.70;96.80;;;;;;5033265;28;20471;-68
2023/01/29 01:37:37;;;;;;;26.02;16.38;;;4.70;96.90;;;;;;5033255;28;20452;-68
2023/01/29 01:40:24;;;;;;;27.75;17.67;;;4.70;97.00;;;;;;5032243;28;20033;-69
2023/01/29 01:42:58;;;;;;;25.13;16.45;;;4.80;97.10;;;;;;5033071;28;20056;-68
2023/01/29 01:45:26;;;;;;;;;;;4.80;97.10;;;;;;5032767;28;20036;-68
2023/01/29 01:47:58;;;;;;;27.83;16.70;;;4.80;97.20;;;;;;5033936;28;19951;-68
2023/01/29 01:50:23;;;;;;;24.50;16.95;;;4.80;97.30;;;;;;5033342;28;20037;-69
2023/01/29 01:52:54;;;;;;;28.25;17.80;;;4.80;97.20;;;;;;5032814;28;20378;-69
2023/01/29 01:55:24;;;;;;;24.92;16.27;;;4.70;97.20;;;;;;5033487;28;20022;-68
2023/01/29 01:57:56;;;;;;;25.60;16.77;;;4.80;97.30;;;;;;5033058;28;20029;-68
2023/01/29 02:00:24;;;;;;;25.60;16.63;;;4.80;97.40;;;;;;5033187;28;20116;-68
2023/01/29 02:11:21;;;;;;;26.90;17.83;;;4.70;97.50;;;;;;5036875;28;20083;-68
2023/01/29 02:13:52;;;;;;;27.58;18.38;;;4.80;97.50;;;;;;5036543;28;20033;-68
2023/01/29 02:16:19;;;;;;;26.90;17.85;;;4.70;97.50;;;;;;5020266;28;20037;-68
2023/01/29 02:18:44;;;;;;;29.50;17.52;;;4.80;97.60;;;;;;5035493;28;20037;-68
2023/01/29 02:21:49;;;;;;;27.25;17.83;;;4.80;97.60;;;;;;5036319;28;20056;-68
2023/01/29 02:24:59;;;;;;;25.88;16.95;;;4.90;97.50;;;;;;5036346;28;20095;-68
2023/01/29 02:27:48;;;;;;;28.27;17.67;;;4.90;97.50;;;;;;5024407;28;20128;-68
2023/01/29 02:30:18;;;;;;;30.27;17.58;;;4.80;97.50;;;;;;5025927;28;20049;-68
2023/01/29 02:33:11;;;;;;;28.35;18.88;;;4.80;97.60;;;;;;5035899;28;20462;-68
2023/01/29 02:35:45;;;;;;;28.73;18.73;;;4.80;97.80;;;;;;5018542;28;20382;-68
2023/01/29 02:38:35;;;;;;;30.83;18.40;;;4.80;98.00;;;;;;5036401;28;20079;-68
2023/01/29 02:41:03;;;;;;;26.52;17.70;;;4.70;97.90;;;;;;5036398;28;20050;-68
2023/01/29 02:43:35;;;;;;;27.75;17.75;;;4.70;97.80;;;;;;5035570;28;20033;-68
2023/01/29 02:46:14;;;;;;;28.73;17.52;;;4.70;97.90;;;;;;5036094;28;20056;-68
2023/01/29 02:48:54;;;;;;;29.70;17.33;;;4.70;97.90;;;;;;5036213;28;20034;-68
2023/01/29 02:51:33;;;;;;;28.55;19.23;;;4.80;97.90;;;;;;5034834;28;20537;-68
2023/01/29 02:54:22;;;;;;;29.23;18.58;;;4.70;97.70;;;;;;5036635;28;20029;-68
2023/01/29 02:56:56;;;;;;;27.92;18.35;;;4.70;97.70;;;;;;5036088;28;20028;-68
2023/01/29 02:59:32;;;;;;;31.35;19.90;;;4.70;97.70;;;;;;5035807;28;20029;-68
2023/01/29 03:02:06;;;;;;;28.77;18.05;;;4.70;97.70;;;;;;5035863;28;20345;-68
2023/01/29 03:04:45;;;;;;;29.20;18.50;;;4.70;97.70;;;;;;5035627;28;20057;-68
2023/01/29 03:07:40;;;;;;;28.02;18.30;;;4.70;97.70;;;;;;5035752;28;20454;-68
2023/01/29 03:10:10;;;;;;;30.00;19.60;;;4.70;97.70;;;;;;5035315;28;20041;-68
2023/01/29 03:12:37;;;;;;;;;;;4.70;97.60;;;;;;5034587;28;20034;-68
2023/01/29 03:15:12;;;;;;;27.70;17.55;;;4.70;97.50;;;;;;5035111;28;19905;-68
2023/01/29 03:17:52;;;;;;;29.92;18.65;;;4.70;97.40;;;;;;5035676;28;20105;-68
2023/01/29 03:20:24;;;;;;;29.55;18.92;;;4.70;97.40;;;;;;5035367;28;20053;-69
2023/01/29 03:22:54;;;;;;;28.95;18.35;;;4.70;97.50;;;;;;5036125;28;20026;-68
2023/01/29 03:34:15;;;;;;;30.25;18.98;;;4.90;97.80;;;;;;5035332;28;20032;-68
2023/01/29 03:36:54;;;;;;;30.00;19.45;;;4.80;97.50;;;;;;5035756;28;20021;-68
2023/01/29 03:39:20;;;;;;;29.00;19.45;;;4.70;97.50;;;;;;5035299;28;20112;-68
2023/01/29 03:42:03;;;;;;;29.60;18.80;;;4.70;97.60;;;;;;5033573;28;20033;-68
2023/01/29 03:44:47;;;;;;;31.77;20.43;;;4.70;97.50;;;;;;5034923;28;20036;-68
2023/01/29 03:47:17;;;;;;;30.77;18.55;;;4.60;97.60;;;;;;5035068;28;20036;-68
2023/01/29 03:49:58;;;;;;;27.83;18.98;;;4.60;97.80;;;;;;5034666;28;20029;-68
2023/01/29 03:52:26;;;;;;;27.40;17.67;;;4.60;98.00;;;;;;5035026;28;20048;-68
2023/01/29 03:55:09;;;;;;;30.70;20.23;;;4.70;98.00;;;;;;5034612;28;20097;-68
2023/01/29 03:57:52;;;;;;;31.67;19.95;;;4.70;97.80;;;;;;5034708;28;20466;-69
2023/01/29 04:00:27;;;;;;;29.08;18.75;;;4.80;97.60;;;;;;5034902;28;20037;-69
2023/01/29 04:03:18;;;;;;;33.67;20.77;;;4.70;97.50;;;;;;5035014;28;20104;-69
2023/01/29 04:05:50;;;;;;;33.45;20.23;;;4.70;97.40;;;;;;5034058;28;20049;-69
2023/01/29 04:08:27;;;;;;;29.65;18.48;;;4.70;97.30;;;;;;5034159;28;20382;-69
2023/01/29 04:10:58;;;;;;;28.60;17.92;;;4.70;97.80;;;;;;5034176;28;20604;-69
2023/01/29 04:13:25;;;;;;;28.92;19.13;;;4.70;97.50;;;;;;5034318;28;20021;-68
2023/01/29 04:15:58;;;;;;;34.28;20.17;;;4.70;97.60;;;;;;5034516;28;20163;-68
2023/01/29 04:18:24;;;;;;;34.08;20.55;;;4.70;97.70;;;;;;5034580;28;20029;-68
2023/01/29 04:20:50;;;;;;;32.53;20.58;;;4.60;98.10;;;;;;5034149;28;20033;-68
2023/01/29 04:23:26;;;;;;;32.10;20.33;;;4.50;97.90;;;;;;5034431;28;20029;-69
2023/01/29 04:26:16;;;;;;;33.80;21.30;;;4.50;98.30;;;;;;5033907;28;20043;-68
2023/01/29 04:28:51;;;;;;;32.25;20.00;;;4.40;98.40;;;;;;5034007;28;20021;-68
2023/01/29 04:31:19;;;;;;;31.90;20.17;;;4.40;98.60;;;;;;5034312;28;20036;-68
2023/01/29 04:34:00;;;;;;;32.13;20.90;;;4.40;98.60;;;;;;5033641;28;20470;-68
2023/01/29 04:36:40;;;;;;;32.15;19.85;;;4.30;98.60;;;;;;5034048;28;20371;-68
2023/01/29 04:39:27;;;;;;;31.75;21.23;;;4.40;98.70;;;;;;5034031;28;20389;-68
2023/01/29 04:41:59;;;;;;;31.15;19.42;;;4.40;98.80;;;;;;5033860;28;20021;-69
2023/01/29 04:44:49;;;;;;;31.67;19.20;;;4.50;98.70;;;;;;5033257;28;20034;-68
2023/01/29 04:47:38;;;;;;;32.35;20.15;;;4.50;98.60;;;;;;5034324;28;20033;-68
2023/01/29 04:50:18;;;;;;;32.17;19.60;;;4.60;98.50;;;;;;5033693;28;20041;-68
2023/01/29 04:53:12;;;;;;;33.00;20.92;;;4.60;98.30;;;;;;5033812;28;20087;-68
2023/01/29 04:56:07;;;;;;;35.75;22.38;;;4.60;98.30;;;;;;5030501;28;20038;-68
2023/01/29 04:58:36;;;;;;;30.50;19.90;;;4.50;98.50;;;;;;5034337;28;20026;-68
2023/01/29 05:01:05;;;;;;;31.73;20.20;;;4.40;98.60;;;;;;5033654;28;20026;-68
2023/01/29 05:03:32;;;;;;;32.85;20.60;;;4.40;98.70;;;;;;5033630;28;20029;-68
2023/01/29 05:05:59;;;;;;;34.75;20.88;;;4.50;98.70;;;;;;5033722;28;20064;-69
2023/01/29 05:08:28;;;;;;;31.95;20.45;;;4.50;98.80;;;;;;5033627;28;20092;-68
2023/01/29 05:10:57;;;;;;;33.08;21.35;;;4.50;98.70;;;;;;5033854;28;20466;-69
2023/01/29 05:13:24;;;;;;;35.28;21.70;;;4.50;98.70;;;;;;5033516;28;20034;-68
2023/01/29 05:16:00;;;;;;;33.50;20.42;;;4.50;98.70;;;;;;5033531;28;20033;-68
2023/01/29 05:18:28;;;;;;;37.90;21.90;;;4.50;98.80;;;;;;5033804;28;20355;-68
2023/01/29 05:20:56;;;;;;;32.22;21.08;;;4.60;98.80;;;;;;5033151;28;20032;-69
2023/01/29 05:23:22;;;;;;;34.25;22.30;;;4.60;98.80;;;;;;5033367;28;20071;-68
2023/01/29 05:25:50;;;;;;;32.47;20.77;;;4.60;98.90;;;;;;5033382;28;20087;-68
2023/01/29 05:28:16;;;;;;;37.42;23.40;;;4.50;99.00;;;;;;5034224;28;20033;-68
2023/01/29 05:30:48;;;;;;;33.60;21.02;;;4.50;99.20;;;;;;5033408;28;20060;-68
2023/01/29 05:33:21;;;;;;;36.47;21.88;;;4.50;99.20;;;;;;5033372;28;20104;-69
2023/01/29 05:35:47;;;;;;;;;;;4.50;99.30;;;;;;5034093;28;20026;-68
2023/01/29 05:38:14;;;;;;;35.42;22.05;;;4.50;99.30;;;;;;5033025;28;20353;-69
2023/01/29 05:40:40;;;;;;;37.47;22.05;;;4.40;99.10;;;;;;5036743;28;20033;-68
2023/01/29 05:43:17;;;;;;;35.05;21.92;;;4.40;99.20;;;;;;5037379;28;20029;-69
2023/01/29 05:45:50;;;;;;;34.13;21.80;;;4.40;99.40;;;;;;5037390;28;20029;-68
2023/01/29 05:48:16;;;;;;;;;;;4.40;99.40;;;;;;5037531;28;20029;-69
2023/01/29 05:50:41;;;;;;;38.30;21.02;;;4.40;99.50;;;;;;5037123;28;19923;-68
2023/01/29 05:53:08;;;;;;;38.22;22.13;;;4.40;99.70;;;;;;5037492;28;20417;-69
2023/01/29 05:55:33;;;;;;;33.58;20.92;;;4.30;99.70;;;;;;5037146;28;20029;-69
2023/01/29 05:57:59;;;;;;;33.88;22.02;;;4.30;99.80;;;;;;5036598;28;20029;-69
2023/01/29 06:00:25;;;;;;;36.67;23.00;;;4.20;99.90;;;;;;5037456;28;20037;-69
2023/01/29 06:02:50;;;;;;;37.25;23.15;;;4.20;99.90;;;;;;5037218;28;20030;-68
2023/01/29 06:05:16;;;;;;;40.97;24.30;;;4.30;99.90;;;;;;5035730;28;20568;-69
2023/01/29 06:07:44;;;;;;;39.05;24.23;;;4.30;99.90;;;;;;5035456;28;20029;-69
2023/01/29 06:10:12;;;;;;;37.08;23.98;;;4.30;99.90;;;;;;5034946;28;20044;-68
2023/01/29 06:12:38;;;;;;;35.50;22.98;;;4.30;99.90;;;;;;5035708;28;20108;-67
2023/01/29 06:15:04;;;;;;;39.50;25.27;;;4.30;99.90;;;;;;5035225;28;20191;-67
2023/01/29 06:17:30;;;;;;;38.88;24.08;;;4.30;99.90;;;;;;5037029;28;20034;-68
2023/01/29 06:19:55;;;;;;;34.53;23.02;;;4.20;99.90;;;;;;5035214;28;20382;-68
2023/01/29 06:22:21;;;;;;;38.05;24.45;;;4.20;99.90;;;;;;5036342;28;20037;-68
2023/01/29 06:24:46;;;;;;;36.53;23.63;;;4.20;99.90;;;;;;5035656;28;20099;-68
2023/01/29 06:27:12;;;;;;;38.05;24.20;;;4.30;99.90;;;;;;5036151;28;20497;-68
2023/01/29 06:29:38;;;;;;;39.20;24.45;;;4.30;99.90;;;;;;5034949;28;20061;-68
2023/01/29 06:32:03;;;;;;;40.83;25.42;;;4.30;99.90;;;;;;5036241;28;20034;-68
2023/01/29 06:34:29;;;;;;;40.05;25.38;;;4.30;99.90;;;;;;5036183;28;20036;-68
2023/01/29 06:36:55;;;;;;;37.28;24.52;;;4.20;99.90;;;;;;5036138;28;20080;-68
2023/01/29 06:39:20;;;;;;;36.10;23.17;;;4.20;99.90;;;;;;5034659;28;20503;-68
2023/01/29 06:41:46;;;;;;;40.90;25.13;;;4.30;99.90;;;;;;5036105;28;20037;-68
2023/01/29 06:44:12;;;;;;;39.78;24.38;;;4.30;99.90;;;;;;5034631;28;20490;-68
2023/01/29 06:46:37;;;;;;;40.13;24.77;;;4.20;99.90;;;;;;5035997;28;20108;-68
2023/01/29 06:49:03;;;;;;;37.38;24.58;;;4.30;99.90;;;;;;5035497;28;20038;-68
2023/01/29 06:51:29;;;;;;;39.50;25.27;;;4.20;99.90;;;;;;5033371;28;20030;-70
2023/01/29 06:53:55;;;;;;;39.33;24.15;;;4.20;99.90;;;;;;5036339;28;20075;-70
2023/01/29 06:56:21;;;;;;;36.30;23.10;;;4.20;99.90;;;;;;5035668;28;20116;-70
2023/01/29 06:58:47;;;;;;;39.28;24.20;;;4.30;99.90;;;;;;5035129;28;20331;-70
2023/01/29 07:01:13;;;;;;;38.20;23.25;;;4.30;99.90;;;;;;5034504;28;20037;-69
2023/01/29 07:03:40;;;;;;;36.92;22.45;;;4.30;99.90;;;;;;5034476;28;20026;-70
2023/01/29 07:06:07;;;;;;;39.83;24.42;;;4.40;99.90;;;;;;5034978;28;20107;-71
2023/01/29 07:08:39;;;;;;;34.13;22.20;;;4.40;99.90;;;;;;5035562;28;20041;-74
2023/01/29 07:11:06;;;;;;;36.05;22.27;;;4.40;99.90;;;;;;5034251;28;20116;-70
2023/01/29 07:13:32;;;;;;;37.53;23.63;;;4.40;99.90;;;;;;5035161;28;20076;-69
2023/01/29 07:15:59;;;;;;;38.70;23.02;;;4.40;99.90;;;;;;5035686;28;20030;-70
2023/01/29 07:18:28;;;;;;;36.15;22.20;;;4.40;99.90;;;;;;5035465;28;20041;-67
2023/01/29 07:20:54;;;;;;;35.47;21.27;;;4.40;99.90;;;;;;5035002;28;20083;-68
2023/01/29 07:23:21;;;;;;;35.90;21.50;;;4.50;99.90;;;;;;5035136;28;20030;-72
2023/01/29 07:25:48;;;;;;;36.05;22.67;;;4.60;99.90;;;;;;5035298;28;20100;-70
2023/01/29 07:28:18;;;;;;;38.60;23.98;;;4.60;99.90;;;;;;5035009;28;20509;-72
2023/01/29 07:30:44;;;;;;;36.58;22.67;;;4.60;99.90;;;;;;5034651;28;20061;-71
2023/01/29 07:33:10;;;;;;;34.22;21.80;;;4.60;99.90;;;;;;5035770;28;20067;-71
2023/01/29 07:35:37;;;;;;;35.08;21.30;;;4.60;99.90;;;;;;5035391;28;20029;-71
2023/01/29 07:38:03;;;;;;;36.17;22.13;;;4.60;99.90;;;;;;5035023;28;20083;-70
2023/01/29 07:40:28;;;;;;;32.22;21.13;;;4.70;99.90;;;;;;5034988;28;20424;-70
2023/01/29 07:43:02;;;;;;;36.88;23.13;;;4.70;99.90;;;;;;5034892;28;20029;-71
2023/01/29 07:45:29;;;;;;;38.85;22.77;;;4.80;99.90;;;;;;5034919;28;20111;-70
2023/01/29 07:47:55;;;;;;;35.97;22.58;;;4.80;99.90;;;;;;5034061;28;20375;-70
2023/01/29 07:50:25;;;;;;;42.20;23.83;;;4.80;99.90;;;;;;5034594;28;20033;-68
2023/01/29 07:52:53;;;;;;;34.90;22.45;;;4.80;99.80;;;;;;5035371;28;20076;-68
2023/01/29 07:55:19;;;;;;;35.45;23.08;;;4.70;99.70;;;;;;5034835;28;20036;-70
2023/01/29 07:57:44;;;;;;;41.55;23.65;;;4.80;99.90;;;;;;5033085;28;20034;-68
2023/01/29 08:00:11;;;;;;;38.53;22.52;;;4.80;99.90;;;;;;5034711;28;20045;-68
2023/01/29 08:02:37;;;;;;;38.47;22.90;;;4.80;99.90;;;;;;5034034;28;20025;-68
2023/01/29 08:05:03;;;;;;;39.35;24.50;;;4.90;99.90;;;;;;5034161;28;20192;-70
2023/01/29 08:07:29;;;;;;;38.83;23.75;;;5.00;99.90;;;;;;5034680;28;20034;-72
2023/01/29 08:09:54;;;;;;;35.10;23.23;;;5.00;99.90;;;;;;5016933;28;20052;-71
2023/01/29 08:12:20;;;;;;;40.78;24.90;;;5.00;99.90;;;;;;5034131;28;20034;-71
2023/01/29 08:14:45;;;;;;;36.38;21.92;;;5.00;99.90;;;;;;5034829;28;20379;-68
2023/01/29 08:17:12;;;;;;;34.15;21.77;;;5.00;99.90;;;;;;5034253;28;20033;-70
2023/01/29 08:19:38;;;;;;;38.55;24.25;;;5.10;99.90;;;;;;5034107;28;20036;-69
2023/01/29 08:22:04;;;;;;;37.10;22.75;;;5.20;99.70;;;;;;5034059;28;20029;-68
2023/01/29 08:24:30;;;;;;;37.72;23.77;;;5.20;99.30;;;;;;5033167;28;20068;-68
2023/01/29 08:26:55;;;;;;;34.78;23.42;;;5.10;99.20;;;;;;5032532;28;20509;-70
2023/01/29 08:29:21;;;;;;;34.90;23.05;;;5.10;99.00;;;;;;5034010;28;20038;-71
2023/01/29 08:31:47;;;;;;;37.53;23.30;;;5.10;99.20;;;;;;5034076;28;20117;-72
2023/01/29 08:34:13;;;;;;;35.55;22.65;;;5.10;98.60;;;;;;5032665;28;20402;-72
2023/01/29 08:36:39;;;;;;;34.03;22.60;;;5.00;98.70;;;;;;5033654;28;20080;-72
2023/01/29 08:39:04;;;;;;;35.72;23.17;;;5.00;98.90;;;;;;5033925;28;20061;-72
2023/01/29 08:41:30;;;;;;;35.58;23.00;;;5.00;99.00;;;;;;5034197;28;20072;-72
2023/01/29 08:43:56;;;;;;;36.25;22.65;;;5.00;99.00;;;;;;5032389;28;20037;-71
2023/01/29 08:46:22;;;;;;;33.22;22.08;;;5.00;99.10;;;;;;5034035;28;20033;-69
2023/01/29 08:48:48;;;;;;;35.65;22.75;;;5.00;99.50;;;;;;5033992;28;20071;-70
2023/01/29 08:51:14;;;;;;;37.33;22.48;;;5.00;99.60;;;;;;5032414;28;20037;-70
2023/01/29 08:53:39;;;;;;;33.35;21.38;;;4.90;99.10;;;;;;5033519;28;20029;-70
2023/01/29 08:56:05;;;;;;;36.95;22.15;;;4.90;99.60;;;;;;5032551;28;20036;-70
2023/01/29 08:58:31;;;;;;;32.47;21.17;;;4.80;99.50;;;;;;5033186;28;20029;-71
2023/01/29 09:01:05;;;;;;;34.95;22.55;;;4.90;99.60;;;;;;5033425;28;20064;-71
2023/01/29 09:03:31;;;;;;;32.67;20.75;;;4.90;99.60;;;;;;5033632;28;20163;-70
2023/01/29 09:05:56;;;;;;;30.95;20.45;;;5.00;99.60;;;;;;5033256;28;20053;-69
2023/01/29 09:08:22;;;;;;;30.15;19.42;;;5.00;99.40;;;;;;5033580;28;20357;-68
2023/01/29 09:10:48;;;;;;;29.65;20.35;;;5.10;99.50;;;;;;5032146;28;20428;-69
2023/01/29 09:13:13;;;;;;;32.03;19.67;;;5.10;99.20;;;;;;5033336;28;20355;-70
2023/01/29 09:15:39;;;;;;;33.30;19.65;;;5.10;99.10;;;;;;5036330;28;20045;-70
2023/01/29 09:18:05;;;;;;;32.17;20.38;;;5.20;99.10;;;;;;5035740;28;20075;-70
2023/01/29 09:20:31;;;;;;;31.17;19.70;;;5.10;98.80;;;;;;5019176;28;20120;-70
2023/01/29 09:22:58;;;;;;;29.77;18.85;;;5.20;99.00;;;;;;5036977;28;20397;-70
2023/01/29 09:25:23;;;;;;;30.75;18.70;;;5.20;99.00;;;;;;5036126;28;20038;-70
2023/01/29 09:27:49;;;;;;;30.52;19.92;;;5.30;98.90;;;;;;5037405;28;20025;-69
2023/01/29 09:30:15;;;;;;;30.83;20.73;;;5.30;98.70;;;;;;5036828;28;20064;-70
2023/01/29 09:32:41;;;;;;;31.23;19.45;;;5.30;98.50;;;;;;5036815;28;20038;-69
2023/01/29 09:35:08;;;;;;;33.65;20.02;;;5.30;98.70;;;;;;5035595;28;20040;-70
2023/01/29 09:37:33;;;;;;;29.50;19.30;;;5.30;98.50;;;;;;5036759;28;20068;-69
2023/01/29 09:39:59;;;;;;;31.15;19.45;;;5.30;98.60;;;;;;5035522;28;20455;-70
2023/01/29 09:42:34;;;;;;;28.92;18.75;;;5.40;98.60;;;;;;5036962;28;20057;-70
2023/01/29 09:45:14;;;;;;;29.33;18.95;;;5.40;98.40;;;;;;5036726;28;20025;-70
2023/01/29 09:47:40;;;;;;;29.83;19.63;;;5.30;98.40;;;;;;5037054;28;20129;-70
2023/01/29 09:50:12;;;;;;;27.00;17.83;;;5.30;98.40;;;;;;5035234;28;20069;-69
2023/01/29 09:53:01;;;;;;;28.77;18.88;;;5.30;98.60;;;;;;5037234;28;20061;-69
2023/01/29 09:55:34;;;;;;;26.77;17.83;;;5.30;98.30;;;;;;5036857;28;20084;-70
2023/01/29 09:58:10;;;;;;;27.00;17.83;;;5.30;98.40;;;;;;5036528;28;20128;-70
2023/01/29 10:01:01;;;;;;;30.35;17.27;;;5.30;98.30;;;;;;5036123;28;20095;-70
2023/01/29 10:03:35;;;;;;;27.35;16.77;;;5.30;98.40;;;;;;5032944;28;20037;-70
2023/01/29 10:06:12;;;;;;;26.85;18.27;;;5.30;98.20;;;;;;5036423;28;20081;-70
2023/01/29 10:08:56;;;;;;;27.60;17.23;;;5.30;98.40;;;;;;5036560;28;20057;-69
2023/01/29 10:11:44;;;;;;;26.00;17.92;;;5.20;98.10;;;;;;5034868;28;20038;-71
2023/01/29 10:14:39;;;;;;;28.33;17.02;;;5.20;98.10;;;;;;5035679;28;20048;-70
2023/01/29 10:17:23;;;;;;;27.38;17.10;;;5.10;98.10;;;;;;5035876;28;20043;-70
2023/01/29 10:20:00;;;;;;;27.08;17.17;;;5.20;98.20;;;;;;5035809;28;20129;-70
2023/01/29 10:22:52;;;;;;;28.40;17.40;;;5.20;98.30;;;;;;5035757;28;20021;-70
2023/01/29 10:25:21;;;;;;;24.55;17.08;;;5.30;98.20;;;;;;5035629;28;20502;-70
2023/01/29 10:27:56;;;;;;;28.13;17.58;;;5.30;98.20;;;;;;5035912;28;20048;-70
2023/01/29 10:30:36;;;;;;;23.15;15.88;;;5.40;98.20;;;;;;5034730;28;20339;-70
2023/01/29 10:33:04;;;;;;;25.33;16.60;;;5.40;98.10;;;;;;5036133;28;20124;-69
2023/01/29 10:35:35;;;;;;;28.42;15.82;;;5.40;97.70;;;;;;5035609;28;20025;-70
2023/01/29 10:38:30;;;;;;;25.70;15.90;;;5.30;97.60;;;;;;5035687;28;20094;-70
2023/01/29 10:41:14;;;;;;;27.42;16.95;;;5.30;97.60;;;;;;5035887;28;20457;-70
2023/01/29 10:43:42;;;;;;;25.25;15.93;;;5.30;97.70;;;;;;5035122;28;20053;-70
2023/01/29 10:46:23;;;;;;;27.08;16.05;;;5.40;97.90;;;;;;5035310;28;20041;-70
2023/01/29 10:48:59;;;;;;;27.70;17.08;;;5.40;97.70;;;;;;5034979;28;20029;-70
2023/01/29 10:51:51;;;;;;;24.90;15.80;;;5.30;97.60;;;;;;5035548;28;20022;-70
2023/01/29 10:54:48;;;;;;;27.33;17.05;;;5.30;97.60;;;;;;5035277;28;20025;-70
2023/01/29 10:57:18;;;;;;;27.15;16.98;;;5.30;97.60;;;;;;5035432;28;20033;-70
2023/01/29 11:00:00;;;;;;;25.60;16.13;;;5.30;97.60;;;;;;5035035;28;20033;-70
2023/01/29 11:02:26;;;;;;;27.88;17.23;;;5.20;97.60;;;;;;5035417;28;20030;-70
2023/01/29 11:04:52;;;;;;;25.23;16.63;;;5.30;97.80;;;;;;5034447;28;20052;-70
2023/01/29 11:07:20;;;;;;;25.40;16.80;;;5.30;97.50;;;;;;5035307;28;20048;-70
2023/01/29 11:10:01;;;;;;;25.98;16.00;;;5.30;97.40;;;;;;5035061;28;20505;-70
2023/01/29 11:12:29;;;;;;;25.88;16.70;;;5.30;97.70;;;;;;5035076;28;20485;-70
2023/01/29 11:15:04;;;;;;;24.98;15.93;;;5.30;97.50;;;;;;5034767;28;20030;-70
2023/01/29 11:17:30;;;;;;;22.42;15.80;;;5.30;97.50;;;;;;5034689;28;20032;-70
2023/01/29 11:19:56;;;;;;;26.08;17.05;;;5.30;97.40;;;;;;5034372;28;20037;-70
2023/01/29 11:22:24;;;;;;;27.92;17.27;;;5.30;97.40;;;;;;5034824;28;20095;-70
2023/01/29 11:25:08;;;;;;;25.92;16.05;;;5.30;97.30;;;;;;5034355;28;20033;-70
2023/01/29 11:27:44;;;;;;;27.55;16.48;;;5.20;97.50;;;;;;5034527;28;20025;-69
2023/01/29 11:30:37;;;;;;;24.35;15.88;;;5.20;97.70;;;;;;5034152;28;20532;-69
2023/01/29 11:33:22;;;;;;;25.10;15.30;;;5.20;97.50;;;;;;5031489;28;20034;-69
2023/01/29 11:35:48;;;;;;;24.52;15.75;;;5.20;97.60;;;;;;5032969;28;20026;-69
2023/01/29 11:38:25;;;;;;;23.95;15.85;;;5.20;97.70;;;;;;5034269;28;20040;-70
2023/01/29 11:40:51;;;;;;;24.42;16.85;;;5.20;97.70;;;;;;5034790;28;20037;-69
2023/01/29 11:43:28;;;;;;;25.15;16.85;;;5.20;97.70;;;;;;5032968;28;20112;-70
2023/01/29 11:46:03;;;;;;;29.75;16.70;;;5.20;97.90;;;;;;5034409;28;20026;-71
2023/01/29 11:48:50;;;;;;;21.92;15.50;;;5.20;97.90;;;;;;5034851;28;20443;-69
2023/01/29 11:51:26;;;;;;;24.55;16.05;;;5.20;97.80;;;;;;5034432;28;20045;-70
2023/01/29 11:54:01;;;;;;;26.17;16.83;;;5.30;97.90;;;;;;5032768;28;20085;-70
2023/01/29 11:56:28;;;;;;;26.13;15.68;;;5.40;98.00;;;;;;5032693;28;20124;-70
2023/01/29 11:58:56;;;;;;;30.05;16.92;;;5.40;98.10;;;;;;5034419;28;20029;-70
2023/01/29 12:01:40;;;;;;;25.90;16.63;;;5.40;97.90;;;;;;5032648;28;20489;-70
2023/01/29 12:04:31;;;;;;;23.42;16.13;;;5.40;97.60;;;;;;5033784;28;20025;-70
2023/01/29 12:06:57;;;;;;;25.63;17.27;;;5.40;97.90;;;;;;5032148;28;20053;-70
2023/01/29 12:09:27;;;;;;;25.77;17.13;;;5.40;98.00;;;;;;5032742;28;20132;-70
2023/01/29 12:11:52;;;;;;;23.92;17.30;;;5.40;97.90;;;;;;5033657;28;20036;-70
2023/01/29 12:14:32;;;;;;;27.13;17.80;;;5.30;98.00;;;;;;5034193;28;20021;-70
2023/01/29 12:17:17;;;;;;;26.63;17.50;;;5.40;98.20;;;;;;5034073;28;20115;-70
2023/01/29 12:20:01;;;;;;;28.42;18.98;;;5.30;98.10;;;;;;5033903;28;20033;-71
2023/01/29 12:22:44;;;;;;;28.85;18.30;;;5.30;98.00;;;;;;5031822;28;20025;-69
2023/01/29 12:25:20;;;;;;;28.75;18.23;;;5.30;98.20;;;;;;5033924;28;20025;-69
2023/01/29 12:27:54;;;;;;;29.67;19.23;;;5.30;98.20;;;;;;5033685;28;20029;-70
2023/01/29 12:31:16;;;;;;;28.58;18.88;;;5.30;98.10;;;;;;5033439;28;20037;-70
2023/01/29 12:33:54;;;;;;;30.38;19.98;;;5.10;98.60;;;;;;5011401;28;20040;-70
2023/01/29 12:36:30;;;;;;;29.92;19.33;;;5.10;98.80;;;;;;5033199;28;20474;-70
2023/01/29 12:38:57;;;;;;;27.75;18.92;;;5.10;98.80;;;;;;5033451;28;20347;-70
2023/01/29 12:41:32;;;;;;;29.25;19.17;;;5.20;98.90;;;;;;5032309;28;20049;-70
2023/01/29 12:44:05;;;;;;;29.70;19.60;;;5.20;99.10;;;;;;5033172;28;20065;-70
2023/01/29 12:46:38;;;;;;;30.20;19.75;;;5.30;99.10;;;;;;5033076;28;20075;-70
2023/01/29 12:49:15;;;;;;;30.40;20.85;;;5.30;99.20;;;;;;5032787;28;20029;-70
2023/01/29 12:52:01;;;;;;;31.52;21.60;;;5.30;99.20;;;;;;5033379;28;20029;-70
2023/01/29 12:54:35;;;;;;;29.20;20.27;;;5.40;99.30;;;;;;5033242;28;20466;-70
2023/01/29 12:57:08;;;;;;;30.88;21.30;;;5.30;99.10;;;;;;5015484;28;20110;-70
2023/01/29 12:59:46;;;;;;;29.77;21.07;;;5.30;99.10;;;;;;5033343;28;20508;-69
2023/01/29 13:02:23;;;;;;;30.70;21.23;;;5.30;99.20;;;;;;5033003;28;20049;-70
2023/01/29 13:05:23;;;;;;;30.08;21.25;;;5.40;99.30;;;;;;5031881;28;20029;-70
2023/01/29 13:08:17;;;;;;;30.15;21.65;;;5.30;99.20;;;;;;5031608;28;20025;-69
2023/01/29 13:10:46;;;;;;;;;;;5.30;99.40;;;;;;5033664;28;20041;-69
2023/01/29 13:13:15;;;;;;;32.55;21.10;;;5.30;99.60;;;;;;5033044;28;19905;-70
2023/01/29 13:15:43;;;;;;;33.63;22.77;;;5.30;99.80;;;;;;5033082;28;20040;-70
2023/01/29 13:18:38;;;;;;;30.42;21.65;;;5.30;99.80;;;;;;5032641;28;20473;-70
2023/01/29 13:21:05;;;;;;;32.47;21.88;;;5.30;99.90;;;;;;5027672;28;20045;-70
2023/01/29 13:23:42;;;;;;;33.42;22.05;;;5.30;99.90;;;;;;5033235;28;20034;-70
2023/01/29 13:26:07;;;;;;;36.45;23.75;;;5.30;99.80;;;;;;5031106;28;20034;-70